Météo des aéroports (METAR) proches de Ticheville

 

LFRG - St Gatien, France
Distance from station: N 52km
Mise à jour: 22/05/2019 15:30
clair
clair
 Wind from NO
Vent: NO 11 km/h
Température: 18°C
Point de rosée: 4°C
Humidité: 40%
Baromètre: 1021 hPa
Résumé: clair
Visibility: greater than 10 km
2019/05/22 13:30 LFRG 221330Z AUTO 32006KT 280V360 CAVOK 18/04 Q1021 NOSIG
LFRK - Caen/Carpiquet(A, France
Distance from station: ONO 60km
Mise à jour: 22/05/2019 15:30
clair
clair
 Wind from NNE
Vent: NNE 11 km/h
Température: 19°C
Point de rosée: 8°C
Humidité: 49%
Baromètre: 1021 hPa
Résumé: clair
Visibility: greater than 10 km
2019/05/22 13:30 LFRK 221330Z AUTO 03006KT 350V070 CAVOK 19/08 Q1021 NOSIG
 
LFOH - Le Havre/Octevil, France
Distance from station: NNO 69km
Mise à jour: 22/05/2019 15:30
clair
clair
 Wind from NO
Vent: NO 7 km/h
Température: 17°C
Point de rosée: 5°C
Humidité: 45%
Baromètre: 1021 hPa
Résumé: clair
Visibility: greater than 10 km
2019/05/22 13:30 LFOH 221330Z AUTO 32004KT 290V360 CAVOK 17/05 Q1021 NOSIG
LFOE - Evreux/Fauville, France
Distance from station: E 70km
Mise à jour: 22/05/2019 15:30
clair
clair
 Wind from N
Vent: N 6 km/h
Température: 20°C
Point de rosée: 7°C
Humidité: 43%
Baromètre: 1021 hPa
Résumé: clair
Visibility: greater than 10 km
2019/05/22 13:30 LFOE 221330Z AUTO 36003KT 310V070 CAVOK 20/07 Q1021 NOSIG
 
LFOP - Rouen/Boos (aut), France
Distance from station: NE 83km
Mise à jour: 22/05/2019 15:30
clair
clair
 Wind from SSO
Vent: SSO 7 km/h
Température: 20°C
Point de rosée: 5°C
Humidité: 38%
Baromètre: 1021 hPa
Résumé: clair
Visibility: greater than 10 km
2019/05/22 13:30 LFOP 221330Z AUTO 20004KT 160V320 CAVOK 20/05 Q1021 NOSIG
LFRM - Le Mans/Arnage(A, France
Distance from station: S 107km
Mise à jour: 22/05/2019 15:30
clair
clair
 Wind from O
Vent: O 7 km/h
Température: 22°C
Point de rosée: 7°C
Humidité: 38%
Baromètre: 1020 hPa
Résumé: clair
Visibility: greater than 10 km
2019/05/22 13:30 LFRM 221330Z AUTO 28004KT 210V360 CAVOK 22/07 Q1020 NOSIG